createdAt,value
2023-07-22T00:00:50.456Z,13.29
2023-07-22T00:03:17.571Z,13.29
2023-07-22T00:05:44.977Z,13.31
2023-07-22T00:08:12.048Z,13.19
2023-07-22T00:10:43.729Z,13.15
2023-07-22T00:13:10.682Z,13.17
2023-07-22T00:15:37.497Z,13.16
2023-07-22T00:18:04.395Z,13.08
2023-07-22T00:20:31.257Z,13.07
2023-07-22T00:22:58.012Z,13.05
2023-07-22T00:25:24.908Z,12.95
2023-07-22T00:27:51.882Z,12.94
2023-07-22T00:30:19.019Z,12.90
2023-07-22T00:32:45.941Z,12.89
2023-07-22T00:35:12.838Z,12.87
2023-07-22T00:37:39.811Z,12.88
2023-07-22T00:40:12.614Z,12.85
2023-07-22T00:42:40.256Z,12.87
2023-07-22T00:45:08.425Z,12.79
2023-07-22T00:47:36.657Z,12.82
2023-07-22T00:50:05.357Z,12.77
2023-07-22T00:52:32.309Z,12.79
2023-07-22T00:54:59.513Z,12.76
2023-07-22T00:57:26.685Z,12.82
2023-07-22T00:59:54.130Z,12.84
2023-07-22T01:02:21.568Z,12.78
2023-07-22T01:04:49.350Z,12.78
2023-07-22T01:07:16.751Z,12.81
2023-07-22T01:09:44.644Z,12.74
2023-07-22T01:12:12.141Z,12.76
2023-07-22T01:14:41.766Z,12.77
2023-07-22T01:17:12.668Z,12.75
2023-07-22T01:19:40.086Z,12.74
2023-07-22T01:22:11.972Z,12.72
2023-07-22T01:24:40.535Z,12.72
2023-07-22T01:27:11.276Z,12.60
2023-07-22T01:29:38.313Z,12.61
2023-07-22T01:32:06.546Z,12.55
2023-07-22T01:34:33.754Z,12.52
2023-07-22T01:37:01.110Z,12.49
2023-07-22T01:39:28.723Z,12.44
2023-07-22T01:41:55.663Z,12.41
2023-07-22T01:44:22.575Z,12.43
2023-07-22T01:46:49.388Z,12.43
2023-07-22T01:49:16.318Z,12.40
2023-07-22T01:51:43.250Z,12.34
2023-07-22T01:54:11.033Z,12.29
2023-07-22T01:56:38.119Z,12.31
2023-07-22T01:59:05.273Z,12.27
2023-07-22T02:01:33.136Z,12.28
2023-07-22T02:04:00.471Z,12.21
2023-07-22T02:06:28.657Z,12.16
2023-07-22T02:08:56.993Z,12.10
2023-07-22T02:11:24.106Z,12.13
2023-07-22T02:13:51.020Z,12.03
2023-07-22T02:16:18.371Z,12.01
2023-07-22T02:18:45.272Z,12.01
2023-07-22T02:21:12.029Z,11.93
2023-07-22T02:23:38.823Z,11.93
2023-07-22T02:26:05.865Z,11.89
2023-07-22T02:28:32.660Z,11.98
2023-07-22T02:31:03.626Z,11.90
2023-07-22T02:33:30.393Z,11.98
2023-07-22T02:35:57.203Z,12.06
2023-07-22T02:38:23.997Z,12.17
2023-07-22T02:40:50.684Z,12.16
2023-07-22T02:43:17.602Z,12.28
2023-07-22T02:45:45.341Z,12.27
2023-07-22T02:48:12.228Z,12.32
2023-07-22T02:50:38.959Z,12.32
2023-07-22T02:53:05.733Z,12.33
2023-07-22T02:55:32.518Z,12.31
2023-07-22T02:57:59.273Z,12.31
2023-07-22T03:00:26.074Z,12.30
2023-07-22T03:03:03.604Z,12.29
2023-07-22T03:05:31.374Z,12.27
2023-07-22T03:07:59.101Z,12.17
2023-07-22T03:10:30.304Z,12.12
2023-07-22T03:12:57.410Z,12.13
2023-07-22T03:15:27.028Z,12.11
2023-07-22T03:17:54.964Z,12.05
2023-07-22T03:20:23.111Z,11.96
2023-07-22T03:22:50.224Z,11.92
2023-07-22T03:25:18.453Z,12.00
2023-07-22T03:27:46.003Z,12.00
2023-07-22T03:30:18.162Z,11.91
2023-07-22T03:32:48.730Z,11.93
2023-07-22T03:35:16.187Z,11.92
2023-07-22T03:37:44.204Z,11.96
2023-07-22T03:40:21.490Z,11.96
2023-07-22T03:42:52.548Z,11.91
2023-07-22T03:45:20.946Z,11.91
2023-07-22T03:47:52.311Z,12.00
2023-07-22T03:50:19.420Z,11.94
2023-07-22T03:52:46.465Z,11.91
2023-07-22T03:55:13.249Z,11.94
2023-07-22T03:57:40.163Z,11.99
2023-07-22T04:00:10.548Z,11.97
2023-07-22T04:02:38.126Z,12.07
2023-07-22T04:05:05.327Z,12.11
2023-07-22T04:07:32.254Z,12.14
2023-07-22T04:09:59.000Z,12.16
2023-07-22T04:12:26.005Z,12.19
2023-07-22T04:14:52.839Z,12.27
2023-07-22T04:17:19.797Z,12.32
2023-07-22T04:19:47.232Z,12.43
2023-07-22T04:22:14.384Z,12.43
2023-07-22T04:24:41.496Z,12.45
2023-07-22T04:27:08.533Z,12.47
2023-07-22T04:29:36.385Z,12.57
2023-07-22T04:32:03.441Z,12.56
2023-07-22T04:34:31.735Z,12.61
2023-07-22T04:36:58.809Z,12.55
2023-07-22T04:39:25.818Z,12.58
2023-07-22T04:41:53.172Z,12.57
2023-07-22T04:44:20.404Z,12.65
2023-07-22T04:46:47.525Z,12.64
2023-07-22T04:49:15.198Z,12.71
2023-07-22T04:51:42.101Z,12.87
2023-07-22T04:54:08.920Z,12.79
2023-07-22T04:56:35.771Z,12.87
2023-07-22T04:59:02.809Z,12.87
2023-07-22T05:01:29.708Z,12.90
2023-07-22T05:03:56.558Z,12.88
2023-07-22T05:06:25.428Z,12.91
2023-07-22T05:08:52.554Z,13.11
2023-07-22T05:11:19.657Z,13.35
2023-07-22T05:13:46.555Z,13.38
2023-07-22T05:16:13.434Z,13.66
2023-07-22T05:18:40.308Z,13.86
2023-07-22T05:21:07.585Z,13.67
2023-07-22T05:23:34.931Z,13.53
2023-07-22T05:26:01.788Z,13.55
2023-07-22T05:28:28.611Z,13.50
2023-07-22T05:30:57.467Z,13.54
2023-07-22T05:33:24.390Z,13.61
2023-07-22T05:35:51.223Z,13.71
2023-07-22T05:38:18.039Z,13.83
2023-07-22T05:40:44.904Z,13.74
2023-07-22T05:43:11.824Z,13.79
2023-07-22T05:45:38.731Z,13.71
2023-07-22T05:48:05.931Z,13.85
2023-07-22T05:50:32.911Z,13.91
2023-07-22T05:52:59.772Z,13.97
2023-07-22T05:55:27.960Z,13.86
2023-07-22T05:57:55.240Z,13.83
2023-07-22T06:00:22.435Z,13.83
2023-07-22T06:02:50.072Z,14.22
2023-07-22T06:05:17.043Z,14.38
2023-07-22T06:07:43.935Z,14.35
2023-07-22T06:10:11.285Z,14.41
2023-07-22T06:12:38.286Z,14.49
2023-07-22T06:15:05.755Z,14.53
2023-07-22T06:17:32.724Z,14.43
2023-07-22T06:19:59.703Z,14.68
2023-07-22T06:22:26.513Z,14.69
2023-07-22T06:24:53.367Z,14.85
2023-07-22T06:27:20.312Z,14.79
2023-07-22T06:29:47.184Z,14.87
2023-07-22T06:32:14.044Z,14.84
2023-07-22T06:34:40.813Z,14.73
2023-07-22T06:37:07.637Z,14.89
2023-07-22T06:39:34.406Z,14.78
2023-07-22T06:42:01.220Z,14.54
2023-07-22T06:44:28.016Z,14.53
2023-07-22T06:46:54.833Z,14.70
2023-07-22T06:49:21.573Z,14.93
2023-07-22T06:51:48.464Z,14.99
2023-07-22T06:54:15.273Z,14.96
2023-07-22T06:56:42.384Z,14.82
2023-07-22T06:59:09.889Z,14.94
2023-07-22T07:01:36.836Z,14.95
2023-07-22T07:04:03.856Z,14.92
2023-07-22T07:06:31.247Z,14.91
2023-07-22T07:09:01.643Z,14.88
2023-07-22T07:11:30.396Z,14.85
2023-07-22T07:13:57.273Z,14.95
2023-07-22T07:16:29.466Z,15.21
2023-07-22T07:18:56.985Z,15.23
2023-07-22T07:21:24.277Z,15.17
2023-07-22T07:23:52.469Z,15.40
2023-07-22T07:26:21.077Z,15.87
2023-07-22T07:28:48.898Z,16.36
2023-07-22T07:31:15.740Z,16.35
2023-07-22T07:33:42.624Z,16.20
2023-07-22T07:36:09.566Z,16.20
2023-07-22T07:38:36.438Z,16.24
2023-07-22T07:41:06.055Z,17.11
2023-07-22T07:43:32.885Z,16.80
2023-07-22T07:46:18.616Z,16.78
2023-07-22T07:48:47.017Z,16.88
2023-07-22T07:51:18.850Z,16.54
2023-07-22T07:53:48.104Z,16.40
2023-07-22T07:56:16.027Z,16.36
2023-07-22T07:58:44.120Z,16.69
2023-07-22T08:01:11.399Z,16.87
2023-07-22T08:03:39.722Z,16.86
2023-07-22T08:06:07.905Z,16.60
2023-07-22T08:08:35.169Z,16.72
2023-07-22T08:11:03.841Z,16.65
2023-07-22T08:13:32.451Z,16.69
2023-07-22T08:15:59.676Z,17.16
2023-07-22T08:18:29.495Z,17.47
2023-07-22T08:20:58.463Z,16.73
2023-07-22T08:23:25.380Z,16.25
2023-07-22T08:25:52.302Z,16.28
2023-07-22T08:28:19.330Z,16.59
2023-07-22T08:30:46.663Z,16.45
2023-07-22T08:33:15.227Z,16.46
2023-07-22T08:35:44.317Z,16.52
2023-07-22T08:38:11.428Z,16.46
2023-07-22T08:40:39.960Z,16.66
2023-07-22T08:43:09.277Z,17.07
2023-07-22T08:45:39.048Z,17.08
2023-07-22T08:48:09.122Z,17.34
2023-07-22T08:50:43.527Z,17.35
2023-07-22T08:53:11.704Z,17.30
2023-07-22T08:55:41.212Z,17.15
2023-07-22T08:58:11.464Z,17.54
2023-07-22T09:00:40.422Z,17.92
2023-07-22T09:03:07.961Z,18.22
2023-07-22T09:05:36.221Z,18.84
2023-07-22T09:08:05.187Z,19.15
2023-07-22T09:10:33.045Z,18.74
2023-07-22T09:13:01.323Z,19.02
2023-07-22T09:15:28.821Z,19.31
2023-07-22T09:17:56.167Z,19.51
2023-07-22T09:20:24.107Z,19.37
2023-07-22T09:23:07.392Z,19.20
2023-07-22T09:25:40.145Z,18.54
2023-07-22T09:28:06.932Z,18.77
2023-07-22T09:30:37.718Z,19.54
2023-07-22T09:33:05.950Z,20.07
2023-07-22T09:35:53.106Z,20.68
2023-07-22T09:38:26.716Z,20.41
2023-07-22T09:40:54.421Z,20.22
2023-07-22T09:43:24.211Z,20.34
2023-07-22T09:45:51.198Z,20.79
2023-07-22T09:48:18.187Z,20.55
2023-07-22T09:50:45.426Z,20.00
2023-07-22T09:53:17.339Z,20.55
2023-07-22T09:55:45.224Z,20.99
2023-07-22T09:58:15.853Z,21.23
2023-07-22T10:00:52.158Z,21.53
2023-07-22T10:03:20.789Z,22.22
2023-07-22T10:05:50.511Z,21.65
2023-07-22T10:08:20.306Z,20.83
2023-07-22T10:10:48.173Z,20.96
2023-07-22T10:13:16.073Z,21.05
2023-07-22T10:15:43.172Z,20.57
2023-07-22T10:18:11.846Z,20.15
2023-07-22T10:20:39.968Z,20.19
2023-07-22T10:23:09.515Z,20.84
2023-07-22T10:25:37.243Z,21.29
2023-07-22T10:28:04.333Z,20.94
2023-07-22T10:30:31.292Z,20.74
2023-07-22T10:32:59.608Z,20.76
2023-07-22T10:35:32.618Z,21.42
2023-07-22T10:38:13.754Z,21.15
2023-07-22T10:40:56.305Z,21.83
2023-07-22T10:43:37.560Z,21.19
2023-07-22T10:46:12.805Z,20.76
2023-07-22T10:48:43.397Z,20.57
2023-07-22T10:51:16.047Z,20.20
2023-07-22T10:53:48.608Z,19.91
2023-07-22T10:56:26.169Z,19.40
2023-07-22T10:58:53.810Z,20.32
2023-07-22T11:01:26.993Z,21.11
2023-07-22T11:04:14.442Z,20.45
2023-07-22T11:06:50.524Z,20.81
2023-07-22T11:09:35.502Z,20.81
2023-07-22T11:12:09.926Z,20.81
2023-07-22T11:14:40.805Z,21.20
2023-07-22T11:17:12.204Z,21.28
2023-07-22T11:19:39.545Z,21.98
2023-07-22T11:22:06.846Z,22.63
2023-07-22T11:24:37.652Z,22.87
2023-07-22T11:27:06.765Z,22.01
2023-07-22T11:29:33.854Z,21.69
2023-07-22T11:32:01.040Z,21.70
2023-07-22T11:34:28.188Z,21.61
2023-07-22T11:36:56.742Z,21.25
2023-07-22T11:39:26.433Z,21.17
2023-07-22T11:41:53.600Z,20.66
2023-07-22T11:44:22.570Z,20.35
2023-07-22T11:47:04.777Z,20.05
2023-07-22T11:49:39.634Z,19.94
2023-07-22T11:52:06.638Z,19.99
2023-07-22T11:54:34.833Z,19.74
2023-07-22T11:57:23.093Z,19.56
2023-07-22T11:59:54.545Z,19.24
2023-07-22T12:02:22.354Z,19.16
2023-07-22T12:04:58.351Z,19.09
2023-07-22T12:07:39.093Z,19.03
2023-07-22T12:10:08.078Z,18.88
2023-07-22T12:12:43.500Z,19.16
2023-07-22T12:15:17.512Z,19.15
2023-07-22T12:18:01.494Z,19.05
2023-07-22T12:20:30.922Z,18.87
2023-07-22T12:22:58.718Z,19.08
2023-07-22T12:25:25.681Z,18.69
2023-07-22T12:27:52.673Z,18.68
2023-07-22T12:30:20.521Z,18.66
2023-07-22T12:32:49.001Z,18.50
2023-07-22T12:35:16.385Z,18.53
2023-07-22T12:37:43.243Z,18.50
2023-07-22T12:40:13.656Z,18.62
2023-07-22T12:42:41.581Z,19.12
2023-07-22T12:45:09.834Z,19.18
2023-07-22T12:47:38.063Z,19.42
2023-07-22T12:50:06.646Z,19.70
2023-07-22T12:52:33.512Z,20.10
2023-07-22T12:55:00.353Z,20.17
2023-07-22T12:57:27.133Z,20.53
2023-07-22T12:59:53.910Z,20.25
2023-07-22T13:02:20.792Z,20.27
2023-07-22T13:04:47.746Z,20.22
2023-07-22T13:07:14.708Z,20.14
2023-07-22T13:09:43.559Z,20.21
2023-07-22T13:12:10.509Z,20.19
2023-07-22T13:14:39.695Z,20.27
2023-07-22T13:17:06.837Z,20.00
2023-07-22T13:19:34.588Z,19.95
2023-07-22T13:22:01.328Z,19.74
2023-07-22T13:24:28.142Z,19.80
2023-07-22T13:26:55.007Z,19.88
2023-07-22T13:29:21.899Z,19.98
2023-07-22T13:31:48.725Z,20.24
2023-07-22T13:34:16.299Z,20.80
2023-07-22T13:36:43.356Z,21.35
2023-07-22T13:39:10.194Z,21.65
2023-07-22T13:41:36.972Z,21.81
2023-07-22T13:44:03.990Z,21.53
2023-07-22T13:46:30.761Z,21.43
2023-07-22T13:48:57.711Z,21.81
2023-07-22T13:51:28.246Z,21.79
2023-07-22T13:53:56.011Z,21.32
2023-07-22T13:56:22.805Z,21.29
2023-07-22T13:58:49.629Z,21.16
2023-07-22T14:01:16.771Z,21.24
2023-07-22T14:03:43.779Z,20.68
2023-07-22T14:06:10.520Z,20.43
2023-07-22T14:08:37.383Z,20.53
2023-07-22T14:11:04.206Z,20.48
2023-07-22T14:13:31.072Z,20.36
2023-07-22T14:16:05.599Z,20.34
2023-07-22T14:18:35.878Z,20.28
2023-07-22T14:21:02.805Z,19.89
2023-07-22T14:23:29.865Z,19.96
2023-07-22T14:25:56.781Z,19.96
2023-07-22T14:28:24.419Z,19.83
2023-07-22T14:30:51.186Z,19.82
2023-07-22T14:33:18.090Z,19.72
2023-07-22T14:35:44.936Z,19.73
2023-07-22T14:38:12.380Z,19.56
2023-07-22T14:40:39.165Z,19.14
2023-07-22T14:43:05.902Z,18.51
2023-07-22T14:45:32.641Z,18.41
2023-07-22T14:47:59.340Z,18.20
2023-07-22T14:50:26.256Z,17.87
2023-07-22T14:52:53.129Z,17.73
2023-07-22T14:55:20.121Z,17.59
2023-07-22T14:57:47.795Z,17.51
2023-07-22T15:00:14.687Z,17.63
2023-07-22T15:02:41.665Z,17.66
2023-07-22T15:05:09.197Z,17.55
2023-07-22T15:07:35.902Z,17.73
2023-07-22T15:10:03.792Z,17.92
2023-07-22T15:12:30.560Z,18.07
2023-07-22T15:14:57.393Z,18.37
2023-07-22T15:17:24.387Z,18.88
2023-07-22T15:19:51.185Z,19.26
2023-07-22T15:22:17.941Z,19.63
2023-07-22T15:24:44.785Z,19.54
2023-07-22T15:27:11.613Z,19.79
2023-07-22T15:29:38.358Z,19.51
2023-07-22T15:32:05.869Z,19.56
2023-07-22T15:34:32.696Z,19.14
2023-07-22T15:37:00.265Z,18.94
2023-07-22T15:39:27.110Z,19.09
2023-07-22T15:41:53.842Z,18.87
2023-07-22T15:44:23.401Z,18.74
2023-07-22T15:46:50.171Z,18.62
2023-07-22T15:49:17.196Z,18.39
2023-07-22T15:51:44.086Z,18.29
2023-07-22T15:54:11.054Z,18.12
2023-07-22T15:56:38.253Z,18.00
2023-07-22T15:59:05.028Z,17.85
2023-07-22T16:01:31.878Z,17.26
2023-07-22T16:03:58.755Z,16.87
2023-07-22T16:06:32.742Z,16.71
2023-07-22T16:09:01.122Z,16.61
2023-07-22T16:11:28.212Z,16.55
2023-07-22T16:13:55.565Z,16.52
2023-07-22T16:16:22.410Z,16.58
2023-07-22T16:18:49.259Z,16.35
2023-07-22T16:21:16.137Z,16.34
2023-07-22T16:23:42.900Z,16.30
2023-07-22T16:26:09.703Z,16.30
2023-07-22T16:28:36.437Z,16.39
2023-07-22T16:31:03.858Z,16.42
2023-07-22T16:33:30.605Z,16.50
2023-07-22T16:35:58.272Z,16.58
2023-07-22T16:38:25.068Z,16.50
2023-07-22T16:40:51.966Z,16.55
2023-07-22T16:43:18.843Z,16.40
2023-07-22T16:45:45.585Z,16.64
2023-07-22T16:48:12.640Z,16.56
2023-07-22T16:50:39.546Z,16.51
2023-07-22T16:53:06.405Z,16.43
2023-07-22T16:55:33.211Z,16.49
2023-07-22T16:58:00.076Z,16.39
2023-07-22T17:00:27.123Z,16.35
2023-07-22T17:02:53.961Z,16.43
2023-07-22T17:05:20.838Z,16.45
2023-07-22T17:07:47.827Z,16.60
2023-07-22T17:10:14.768Z,16.52
2023-07-22T17:12:41.577Z,16.44
2023-07-22T17:15:09.215Z,16.40
2023-07-22T17:17:36.448Z,16.30
2023-07-22T17:20:03.501Z,16.25
2023-07-22T17:22:30.276Z,16.20
2023-07-22T17:24:57.443Z,16.18
2023-07-22T17:27:24.257Z,15.93
2023-07-22T17:29:50.964Z,15.98
2023-07-22T17:32:17.820Z,16.18
2023-07-22T17:34:44.584Z,16.08
2023-07-22T17:37:11.367Z,16.04
2023-07-22T17:39:38.258Z,15.99
2023-07-22T17:42:05.430Z,15.99
2023-07-22T17:44:32.269Z,15.92
2023-07-22T17:47:01.927Z,15.82
2023-07-22T17:49:28.842Z,15.86
2023-07-22T17:51:55.696Z,15.83
2023-07-22T17:54:22.593Z,15.82
2023-07-22T17:56:49.407Z,15.70
2023-07-22T17:59:16.261Z,15.70
2023-07-22T18:01:43.085Z,15.80
2023-07-22T18:04:09.849Z,15.71
2023-07-22T18:06:37.038Z,15.74
2023-07-22T18:09:03.852Z,15.77
2023-07-22T18:11:31.045Z,15.62
2023-07-22T18:13:58.527Z,15.57
2023-07-22T18:16:25.523Z,15.51
2023-07-22T18:18:53.723Z,15.55
2023-07-22T18:21:20.776Z,15.63
2023-07-22T18:23:47.633Z,15.57
2023-07-22T18:26:17.688Z,15.53
2023-07-22T18:28:44.515Z,15.52
2023-07-22T18:31:11.442Z,15.46
2023-07-22T18:33:38.320Z,15.44
2023-07-22T18:36:05.892Z,15.36
2023-07-22T18:38:34.580Z,15.34
2023-07-22T18:41:01.575Z,15.37
2023-07-22T18:43:28.596Z,15.41
2023-07-22T18:45:55.526Z,15.40
2023-07-22T18:48:22.436Z,15.47
2023-07-22T18:50:55.782Z,15.41
2023-07-22T18:53:22.685Z,15.36
2023-07-22T18:55:49.567Z,15.31
2023-07-22T18:58:16.351Z,15.32
2023-07-22T19:00:43.345Z,15.28
2023-07-22T19:03:10.199Z,15.30
2023-07-22T19:05:40.079Z,15.23
2023-07-22T19:08:06.908Z,15.23
2023-07-22T19:10:33.765Z,15.23
2023-07-22T19:13:00.510Z,15.25
2023-07-22T19:15:27.454Z,15.22
2023-07-22T19:17:54.316Z,15.21
2023-07-22T19:20:21.146Z,15.21
2023-07-22T19:22:47.887Z,15.23
2023-07-22T19:25:15.190Z,15.24
2023-07-22T19:27:42.379Z,15.18
2023-07-22T19:30:10.161Z,15.01
2023-07-22T19:32:36.948Z,15.12
2023-07-22T19:35:04.016Z,15.11
2023-07-22T19:37:30.802Z,15.10
2023-07-22T19:39:57.643Z,15.13
2023-07-22T19:42:24.684Z,15.16
2023-07-22T19:44:51.548Z,15.11
2023-07-22T19:47:20.905Z,15.00
2023-07-22T19:49:50.569Z,14.95
2023-07-22T19:52:17.426Z,14.94
2023-07-22T19:54:44.317Z,14.99
2023-07-22T19:57:11.138Z,14.92
2023-07-22T19:59:37.976Z,14.88
2023-07-22T20:02:05.182Z,14.92
2023-07-22T20:04:34.079Z,14.86
2023-07-22T20:07:01.094Z,14.93
2023-07-22T20:09:28.086Z,14.93
2023-07-22T20:11:54.915Z,14.89
2023-07-22T20:14:21.811Z,14.80
2023-07-22T20:16:48.615Z,14.78
2023-07-22T20:19:15.472Z,14.77
2023-07-22T20:21:42.537Z,14.88
2023-07-22T20:24:09.523Z,14.69
2023-07-22T20:26:36.336Z,14.78
2023-07-22T20:29:03.695Z,14.73
2023-07-22T20:31:30.732Z,14.66
2023-07-22T20:33:58.032Z,14.65
2023-07-22T20:36:24.790Z,14.54
2023-07-22T20:38:51.559Z,14.52
2023-07-22T20:41:18.877Z,14.44
2023-07-22T20:43:45.668Z,14.44
2023-07-22T20:46:12.660Z,14.39
2023-07-22T20:48:39.540Z,14.42
2023-07-22T20:51:06.512Z,14.37
2023-07-22T20:53:33.284Z,14.39
2023-07-22T20:56:01.155Z,14.35
2023-07-22T20:58:29.478Z,14.35
2023-07-22T21:00:59.815Z,14.30
2023-07-22T21:03:26.756Z,14.28
2023-07-22T21:05:57.990Z,14.27
2023-07-22T21:08:25.690Z,14.25
2023-07-22T21:10:52.862Z,14.17
2023-07-22T21:13:20.011Z,14.22
2023-07-22T21:15:47.020Z,14.19
2023-07-22T21:18:13.999Z,14.21
2023-07-22T21:20:41.050Z,14.22
2023-07-22T21:23:07.873Z,14.25
2023-07-22T21:25:34.737Z,14.22
2023-07-22T21:28:01.576Z,14.21
2023-07-22T21:30:28.437Z,14.24
2023-07-22T21:32:55.310Z,14.24
2023-07-22T21:35:22.169Z,14.25
2023-07-22T21:37:48.940Z,14.25
2023-07-22T21:40:16.204Z,14.23
2023-07-22T21:42:44.805Z,14.20
2023-07-22T21:45:12.011Z,14.17
2023-07-22T21:47:38.957Z,14.15
2023-07-22T21:50:06.707Z,14.11
2023-07-22T21:52:33.525Z,14.17
2023-07-22T21:55:00.521Z,14.37
2023-07-22T21:57:27.441Z,14.55
2023-07-22T21:59:54.385Z,14.39
2023-07-22T22:02:21.495Z,14.50
2023-07-22T22:04:48.333Z,14.52
2023-07-22T22:07:15.284Z,14.36
2023-07-22T22:09:42.175Z,14.39
2023-07-22T22:12:09.042Z,14.37
2023-07-22T22:14:35.834Z,14.34
2023-07-22T22:17:03.941Z,14.33
2023-07-22T22:19:30.797Z,14.20
2023-07-22T22:21:57.755Z,14.26
2023-07-22T22:24:24.789Z,14.17
2023-07-22T22:26:51.527Z,14.22
2023-07-22T22:29:18.311Z,14.32
2023-07-22T22:31:46.439Z,14.24
2023-07-22T22:34:13.289Z,14.24
2023-07-22T22:36:40.004Z,14.21
2023-07-22T22:39:06.812Z,14.15
2023-07-22T22:41:33.660Z,14.13
2023-07-22T22:44:00.476Z,14.13
2023-07-22T22:46:27.353Z,14.17
2023-07-22T22:48:54.244Z,14.22
2023-07-22T22:51:21.075Z,14.17
2023-07-22T22:53:47.913Z,14.27
2023-07-22T22:56:14.688Z,14.30
2023-07-22T22:58:41.431Z,14.27
2023-07-22T23:01:15.423Z,14.26
2023-07-22T23:03:42.517Z,14.22
2023-07-22T23:06:20.181Z,14.12
2023-07-22T23:08:48.254Z,14.08
2023-07-22T23:11:18.303Z,13.97
2023-07-22T23:13:48.909Z,14.00
2023-07-22T23:16:20.119Z,13.93
2023-07-22T23:18:48.872Z,13.96
2023-07-22T23:21:17.213Z,13.92
2023-07-22T23:23:44.786Z,13.99
2023-07-22T23:26:12.135Z,13.90
2023-07-22T23:28:38.985Z,13.94
2023-07-22T23:31:05.887Z,13.86
2023-07-22T23:33:32.739Z,13.85
2023-07-22T23:36:02.141Z,13.93
2023-07-22T23:38:29.053Z,13.93
2023-07-22T23:40:56.332Z,13.90
2023-07-22T23:43:24.880Z,13.94
2023-07-22T23:45:55.550Z,13.94
2023-07-22T23:48:24.658Z,13.90
2023-07-22T23:50:51.897Z,13.86
2023-07-22T23:53:19.019Z,13.83
2023-07-22T23:55:45.808Z,13.85
2023-07-22T23:58:12.675Z,13.90
